METAR Reports

 

KMRH - Beaufort, North Carolina, USA
Distance from station: E 8mi, 12km
Updated: Mon, 28-Nov-2022 1:58pm EST
Clear
Clear
 Wind from SW
Wind: SW 14 mph , 22 km/h
Temperature: 64°F , 18°C
Dew Point: 52°F , 11°C
Humidity: 64%
Barometer: 29.86 inHg , 1011.2 hPa
Clouds: Clear
Visibility: 10 miles , 16 km
2022/11/28 18:58 KMRH 281858Z AUTO 23012KT 10SM CLR 18/11 A2986 RMK AO2 SLP112 T01830106
KEWN - New Bern, North Carolina, USA
Distance from station: NW 33mi, 40km
Updated: Mon, 28-Nov-2022 1:54pm EST
Clear
Clear
 Wind from W
Wind: W 10 mph , 17 km/h
Temperature: 68°F , 20°C
Dew Point: 45°F , 7°C
Humidity: 43%
Barometer: 29.87 inHg , 1011.5 hPa
Clouds: Clear
Visibility: 10 miles , 16 km
2022/11/28 18:54 KEWN 281854Z 28009KT 10SM CLR 20/07 A2987 RMK AO2 SLP113 T02000072
 
KPGV - Greenville, North Carolina, USA
Updated: Mon, 28-Nov-2022 2:35pm EST
Clear
Clear
 Wind from NW
Wind: NW 5 mph , 7 km/h
Temperature: 68°F , 20°C
Dew Point: 41°F , 5°C
Humidity: 38%
Barometer: 29.86 inHg , 1011.2 hPa
Clouds: Clear
Visibility: 10 miles , 16 km
2022/11/28 19:35 KPGV 281935Z AUTO 31004KT 10SM CLR 20/05 A2986 RMK AO2
KOAJ - Richlands, North Carolina, USA
Updated: Mon, 28-Nov-2022 1:56pm EST
Partly Cloudy
Partly Cloudy
 Wind from NW
Wind: NW 9 mph , 15 km/h
Temperature: 70°F , 21°C
Dew Point: 46°F , 8°C
Humidity: 43%
Barometer: 29.87 inHg , 1011.5 hPa
Clouds: Partly Cloudy
Visibility: 10 miles , 16 km
Cloud details: Partly Cloudy 5000 ft
2022/11/28 18:56 KOAJ 281856Z 31008KT 10SM SCT050 21/08 A2987 RMK AO2 SLP118 T02060078
 
KISO - Kinston, North Carolina, USA
Distance from station: NW 73mi, 87km
Updated: Mon, 28-Nov-2022 1:56pm EST
Clear
Clear
 Wind from WNW
Wind: WNW 10 mph , 17 km/h, Gust: 16 mph , 26 km/h
Temperature: 66°F , 19°C
Dew Point: 43°F , 6°C
Humidity: 43%
Barometer: 29.87 inHg , 1011.5 hPa
Clouds: Clear
Visibility: 10 miles , 16 km
2022/11/28 18:56 KISO 281856Z 30009G14KT 10SM CLR 19/06 A2987
KHSE - Buxton, North Carolina, USA
Distance from station: NE 89mi, 102km
Updated: Mon, 28-Nov-2022 1:51pm EST
Clear
Clear
 Wind from W
Wind: W 9 mph , 15 km/h, Gust: 20 mph , 31 km/h
Temperature: 63°F , 17°C
Dew Point: 50°F , 10°C
Humidity: 64%
Barometer: 29.85 inHg , 1010.8 hPa
Clouds: Clear
Visibility: 10 miles , 16 km
2022/11/28 18:51 KHSE 281851Z AUTO 26008G17KT 10SM CLR 17/10 A2985 RMK AO2 SLP107 T01720100
 
KNCA - Jacksonville, North Carolina, USA
Distance from station: SW 48mi, 60km
Updated: Mon, 28-Nov-2022 1:56pm EST
Mostly Cloudy
Mostly Cloudy
 Wind from W
Wind: W 10 mph , 17 km/h
Temperature: 68°F , 20°C
Dew Point: 46°F , 8°C
Humidity: 46%
Barometer: 29.86 inHg , 1011.2 hPa
Clouds: Mostly Cloudy
Visibility: 10 miles , 16 km
Cloud details: Mostly Cloudy 5000 ft
2022/11/28 18:56 KNCA 281856Z 27009KT 10SM BKN050 20/08 A2986 RMK AO2 SLP114 T02000078
KNKT - Cherry Point, North Carolina, USA
Distance from station: NW 9mi, 12km
Updated: Mon, 28-Nov-2022 1:56pm EST
Clear
Clear
 Wind from W
Wind: W 14 mph , 22 km/h
Temperature: 66°F , 19°C
Dew Point: 46°F , 8°C
Humidity: 49%
Barometer: 29.87 inHg , 1011.5 hPa
Clouds: Clear
Visibility: 10 miles , 16 km
2022/11/28 18:56 KNKT 281856Z 27012KT 10SM CLR 19/08 A2987 RMK AO2 SLP111 T01940078
 
KOCW - Washington, North Carolina, USA
Distance from station: N 73mi, 87km
Updated: Mon, 28-Nov-2022 2:15pm EST
Clear
Clear
 Wind from W
Wind: W 9 mph , 15 km/h, Gust: 17 mph , 28 km/h
Temperature: 68°F , 20°C
Dew Point: 41°F , 5°C
Humidity: 38%
Barometer: 29.85 inHg , 1010.8 hPa
Clouds: Clear
Visibility: 10 miles , 16 km
2022/11/28 19:15 KOCW 281915Z AUTO 27008G15KT 10SM CLR 20/05 A2985 RMK AO2 T01970048
KDPL - Kenansville, North Carolina, USA
Distance from station: W 86mi, 98km
Updated: Mon, 28-Nov-2022 2:35pm EST
Clear
Clear
 Wind from W
Wind: W 10 mph , 17 km/h
Temperature: 68°F , 20°C
Dew Point: 45°F , 7°C
Humidity: 43%
Barometer: 29.88 inHg , 1011.9 hPa
Clouds: Clear
Visibility: 10 miles , 16 km
2022/11/28 19:35 KDPL 281935Z AUTO 27009KT 10SM CLR 20/07 A2988 RMK AO2
 
KMQI - Manteo, North Carolina, USA
Updated: Mon, 28-Nov-2022 2:35pm EST
Clear
Clear
 Wind from NW
Wind: NW 6 mph , 9 km/h
Temperature: 64°F , 18°C
Dew Point: 45°F , 7°C
Humidity: 49%
Barometer: 29.85 inHg , 1010.8 hPa
Clouds: Clear
Visibility: 10 miles , 16 km
2022/11/28 19:35 KMQI 281935Z AUTO 31005KT 10SM CLR 18/07 A2985 RMK AO2 T01770067
KFFA - Kill Devil Hills, North Carolina, USA
Updated: Mon, 28-Nov-2022 2:55pm EST
Partly Cloudy
Partly Cloudy
 Wind from W
Wind: W 8 mph , 13 km/h
Temperature: 63°F , 17°C
Dew Point: 45°F , 7°C
Humidity: 52%
Barometer: 29.83 inHg , 1010.2 hPa
Clouds: Partly Cloudy
Visibility: 10 miles , 16 km
Cloud details: Partly Cloudy 5000 ft
2022/11/28 19:55 KFFA 281955Z AUTO 26007KT 10SM SCT050 17/07 A2983 RMK AO2 T01690067
 
KILM - Wilmington, North Carolina, USA
Updated: Mon, 28-Nov-2022 1:53pm EST
Clear
Clear
 Wind from W
Wind: W 10 mph , 17 km/h, Gust: 21 mph , 33 km/h
Temperature: 70°F , 21°C
Dew Point: 48°F , 9°C
Humidity: 46%
Barometer: 29.87 inHg , 1011.5 hPa
Clouds: Clear
Visibility: 10 miles , 16 km
2022/11/28 18:53 KILM 281853Z 26009G18KT 10SM CLR 21/09 A2987 RMK AO2 SLP115 T02110089
KRDU - Raleigh, North Carolina, USA
Updated: Mon, 28-Nov-2022 1:51pm EST
Partly Cloudy
Partly Cloudy
 Wind from W
Wind: W 8 mph , 13 km/h
Temperature: 66°F , 19°C
Dew Point: 43°F , 6°C
Humidity: 43%
Barometer: 29.88 inHg , 1011.9 hPa
Clouds: Partly Cloudy
Visibility: 10 miles , 16 km
Cloud details: Partly Cloudy 5500 ft
Partly Cloudy 25000 ft
2022/11/28 18:51 KRDU 281851Z 26007KT 220V290 10SM SCT055 SCT250 19/06 A2988 RMK AO2 SLP115 T01940061